Time;durP1;ratioP1;P1;durP2;ratioP2;P2;SDS_P1;SDS_P2;PMS_P1;PMS_P2;Temp;Humidity;BMP_temperature;BMP_pressure;BME280_temperature;BME280_humidity;BME280_pressure;Samples;Min_cycle;Max_cycle;Signal;HPM_P1;HPM_P2
2023/04/20 00:01:45;;;;;;;;;;;;;;;16.19;48.25;100247.53;5017593;28;1123;-46
2023/04/20 00:04:10;;;;;;;;;;;;;;;15.87;47.67;100243.34;5019155;28;1051;-45
2023/04/20 00:06:36;;;;;;;;;;;;;;;15.84;46.97;100243.91;5024421;28;1139;-46
2023/04/20 00:09:03;;;;;;;;;;;;;;;16.85;47.44;100250.09;5017365;28;1186;-49
2023/04/20 00:11:29;;;;;;;;;;;;;;;16.18;47.86;100250.59;5017264;28;1101;-48
2023/04/20 00:13:54;;;;;;;;;;;;;;;15.86;47.72;100246.34;5017082;28;1025;-43
2023/04/20 00:16:20;;;;;;;;;;;;;;;16.20;47.60;100245.63;5019737;28;1901;-49
2023/04/20 00:18:46;;;;;;;;;;;;;;;16.65;47.99;100251.91;5023143;28;1039;-45
2023/04/20 00:21:12;;;;;;;;;;;;;;;16.11;48.15;100244.59;5024192;28;1020;-48
2023/04/20 00:23:37;;;;;;;;;;;;;;;15.88;47.44;100250.47;5016754;28;1040;-47
2023/04/20 00:26:03;;;;;;;;;;;;;;;17.12;47.70;100243.28;5017427;28;1126;-50
2023/04/20 00:28:29;;;;;;;;;;;;;;;16.20;48.58;100240.13;5019811;28;1091;-44
2023/04/20 00:30:54;;;;;;;;;;;;;;;16.03;47.64;100238.59;5024408;28;1107;-48
2023/04/20 00:33:20;;;;;;;;;;;;;;;15.85;47.30;100245.56;5016709;28;1178;-48
2023/04/20 00:35:45;;;;;;;;;;;;;;;15.73;46.77;100237.59;5016972;28;1090;-48
2023/04/20 00:38:11;;;;;;;;;;;;;;;17.06;47.31;100237.81;5016853;28;1979;-44
2023/04/20 00:40:36;;;;;;;;;;;;;;;16.16;48.60;100241.81;5020181;28;1122;-45
2023/04/20 00:43:12;;;;;;;;;;;;;;;15.92;47.75;100237.00;5017122;28;1066;-47
2023/04/20 00:45:37;;;;;;;;;;;;;;;16.75;48.06;100240.03;5015095;28;1234;-46
2023/04/20 00:48:03;;;;;;;;;;;;;;;16.02;48.73;100234.22;5016843;28;1186;-46
2023/04/20 00:50:29;;;;;;;;;;;;;;;15.90;47.77;100229.06;5016824;28;1118;-43
2023/04/20 00:52:55;;;;;;;;;;;;;;;15.77;47.02;100226.06;5020455;28;1143;-45
2023/04/20 00:55:22;;;;;;;;;;;;;;;16.75;47.44;100227.09;5021945;28;1019;-43
2023/04/20 00:57:48;;;;;;;;;;;;;;;16.53;48.62;100221.25;5015299;28;1918;-44
2023/04/20 01:00:14;;;;;;;;;;;;;;;18.05;47.30;100227.34;5016922;28;1055;-47
2023/04/20 01:02:40;;;;;;;;;;;;;;;17.19;49.10;100222.56;5021809;28;1526;-45
2023/04/20 01:05:07;;;;;;;;;;;;;;;16.64;48.92;100225.53;5027832;28;1127;-48
2023/04/20 01:07:32;;;;;;;;;;;;;;;16.31;48.34;100221.69;5023284;28;1201;-43
2023/04/20 01:09:58;;;;;;;;;;;;;;;16.15;47.86;100224.53;5036101;28;1079;-45
2023/04/20 01:12:24;;;;;;;;;;;;;;;15.99;47.28;100223.81;5021674;28;1179;-47
2023/04/20 01:14:49;;;;;;;;;;;;;;;16.15;47.19;100224.53;5022953;28;1043;-47
2023/04/20 01:17:17;;;;;;;;;;;;;;;16.57;48.71;100219.56;5029407;28;1898;-49
2023/04/20 01:19:44;;;;;;;;;;;;;;;16.07;48.62;100225.97;5027370;28;1178;-47
2023/04/20 01:22:17;;;;;;;;;;;;;;;15.97;47.68;100217.78;5023392;28;1032;-45
2023/04/20 01:24:43;;;;;;;;;;;;;;;16.48;48.03;100221.28;5022657;28;1058;-49
2023/04/20 01:27:08;;;;;;;;;;;;;;;16.28;48.59;100214.84;5023049;28;1175;-46
2023/04/20 01:29:34;;;;;;;;;;;;;;;16.02;48.19;100223.25;5029098;28;1060;-45
2023/04/20 01:32:00;;;;;;;;;;;;;;;16.67;48.10;100227.72;5021464;28;1167;-48
2023/04/20 01:34:26;;;;;;;;;;;;;;;16.16;48.71;100217.94;5022393;28;1434;-44
2023/04/20 01:36:52;;;;;;;;;;;;;;;15.97;47.75;100220.53;5022697;28;1963;-46
2023/04/20 01:39:18;;;;;;;;;;;;;;;16.56;47.75;100218.75;5021702;28;1132;-48
2023/04/20 01:41:43;;;;;;;;;;;;;;;16.31;48.26;100218.94;5022811;28;864;-46
2023/04/20 01:44:09;;;;;;;;;;;;;;;15.96;47.79;100207.09;5021414;28;1219;-49
2023/04/20 01:46:38;;;;;;;;;;;;;;;15.81;47.25;100211.56;5021132;28;1152;-47
2023/04/20 01:49:05;;;;;;;;;;;;;;;16.39;47.54;100210.91;5021717;28;1113;-46
2023/04/20 01:51:32;;;;;;;;;;;;;;;16.36;48.16;100214.22;5023088;28;1078;-46
2023/04/20 01:53:59;;;;;;;;;;;;;;;15.99;47.72;100217.50;5028624;28;1088;-48
2023/04/20 01:56:24;;;;;;;;;;;;;;;16.07;47.83;100220.47;5022468;28;1977;-44
2023/04/20 01:58:50;;;;;;;;;;;;;;;16.48;48.17;100224.88;5022448;28;1147;-45
2023/04/20 02:01:15;;;;;;;;;;;;;;;15.96;48.11;100227.09;5022983;28;1215;-45
2023/04/20 02:03:41;;;;;;;;;;;;;;;16.18;47.88;100229.44;5021500;28;1068;-46
2023/04/20 02:06:07;;;;;;;;;;;;;;;16.72;48.25;100224.13;5024327;28;868;-44
2023/04/20 02:08:32;;;;;;;;;;;;;;;16.10;48.44;100229.22;5021342;28;1140;-44
2023/04/20 02:10:58;;;;;;;;;;;;;;;16.27;48.12;100220.63;5022682;28;1047;-48
2023/04/20 02:13:23;;;;;;;;;;;;;;;16.31;48.84;100225.25;5019168;28;1059;-47
2023/04/20 02:15:49;;;;;;;;;;;;;;;15.99;47.93;100226.56;5019743;28;1122;-44
2023/04/20 02:18:15;;;;;;;;;;;;;;;16.03;48.09;100224.88;5028032;28;1905;-47
2023/04/20 02:20:41;;;;;;;;;;;;;;;16.75;48.24;100232.59;5018172;28;1143;-42
2023/04/20 02:23:07;;;;;;;;;;;;;;;16.08;48.60;100224.03;5018219;28;1213;-43
2023/04/20 02:25:34;;;;;;;;;;;;;;;15.98;47.43;100227.66;5019385;28;1056;-47
2023/04/20 02:27:59;;;;;;;;;;;;;;;16.60;47.78;100224.47;5018763;28;1021;-47
2023/04/20 02:30:25;;;;;;;;;;;;;;;16.54;48.54;100222.91;5021882;28;876;-49
2023/04/20 02:32:51;;;;;;;;;;;;;;;16.10;48.34;100219.06;5019160;28;1016;-47
2023/04/20 02:35:17;;;;;;;;;;;;;;;15.90;47.30;100214.53;5019080;28;996;-43
2023/04/20 02:37:43;;;;;;;;;;;;;;;16.68;47.89;100212.06;5018931;28;1985;-45
2023/04/20 02:40:10;;;;;;;;;;;;;;;16.23;48.38;100212.16;5019155;28;1213;-48
2023/04/20 02:42:36;;;;;;;;;;;;;;;15.92;47.70;100206.84;5027500;28;1230;-45
2023/04/20 02:45:05;;;;;;;;;;;;;;;15.83;46.95;100214.84;5017321;28;1417;-43
2023/04/20 02:47:31;;;;;;;;;;;;;;;15.67;46.75;100214.06;5017505;28;1161;-47
2023/04/20 02:49:56;;;;;;;;;;;;;;;16.88;47.48;100211.06;5018857;28;1142;-48
2023/04/20 02:52:23;;;;;;;;;;;;;;;16.12;48.04;100207.81;5017534;28;1226;-47
2023/04/20 02:54:48;;;;;;;;;;;;;;;16.81;47.86;100211.41;5017637;28;1151;-45
2023/04/20 02:57:14;;;;;;;;;;;;;;;16.59;48.58;100204.47;5018387;28;1906;-48
2023/04/20 02:59:40;;;;;;;;;;;;;;;16.16;48.11;100206.97;5017135;28;1214;-46
2023/04/20 03:02:33;;;;;;;;;;;;;;;15.91;47.31;100210.69;5017049;28;1080;-45
2023/04/20 03:05:00;;;;;;;;;;;;;;;15.81;46.64;100202.50;5017392;28;1112;-48
2023/04/20 03:07:33;;;;;;;;;;;;;;;16.68;48.04;100209.34;5025445;28;1264;-44
2023/04/20 03:09:59;;;;;;;;;;;;;;;16.10;47.97;100207.28;5018819;28;1126;-43
2023/04/20 03:12:40;;;;;;;;;;;;;;;15.79;47.41;100201.97;5017448;28;1255;-52
2023/04/20 03:15:25;;;;;;;;;;;;;;;17.19;47.25;100213.53;5014412;28;1277;-52
2023/04/20 03:18:00;;;;;;;;;;;;;;;16.39;48.44;100210.91;5023109;28;1910;-52
2023/04/20 03:20:26;;;;;;;;;;;;;;;16.10;47.75;100210.03;5016895;28;1423;-52
2023/04/20 03:22:52;;;;;;;;;;;;;;;16.68;48.54;100207.41;5016875;28;1217;-52
2023/04/20 03:25:21;;;;;;;;;;;;;;;16.07;48.45;100206.78;5016507;28;1373;-53
2023/04/20 03:27:58;;;;;;;;;;;;;;;16.64;48.51;100211.00;5018229;28;1083;-53
2023/04/20 03:30:24;;;;;;;;;;;;;;;16.57;48.81;100216.81;5017773;28;1218;-50
2023/04/20 03:32:58;;;;;;;;;;;;;;;16.18;48.06;100202.00;5016671;28;1402;-53
2023/04/20 03:35:23;;;;;;;;;;;;;;;15.90;47.61;100200.81;5018546;28;1016;-52
2023/04/20 03:37:49;;;;;;;;;;;;;;;15.81;47.19;100188.81;5017752;28;1975;-53
2023/04/20 03:40:15;;;;;;;;;;;;;;;16.05;47.44;100210.91;5017766;28;1060;-52
2023/04/20 03:42:40;;;;;;;;;;;;;;;16.60;48.29;100210.75;5026121;28;1016;-50
2023/04/20 03:45:06;;;;;;;;;;;;;;;16.08;48.03;100215.81;5005849;28;1352;-51
2023/04/20 03:47:32;;;;;;;;;;;;;;;15.81;47.74;100206.09;5047996;28;1394;-52
2023/04/20 03:49:58;;;;;;;;;;;;;;;15.75;46.88;100207.16;5004923;28;1372;-51
2023/04/20 03:52:24;;;;;;;;;;;;;;;16.89;47.22;100204.50;5017819;28;1163;-50
2023/04/20 03:54:50;;;;;;;;;;;;;;;16.32;48.07;100215.09;5025968;28;1056;-55
2023/04/20 03:57:16;;;;;;;;;;;;;;;16.47;48.60;100205.94;5017423;28;1977;-55
2023/04/20 03:59:42;;;;;;;;;;;;;;;17.21;48.16;100209.38;5017405;28;945;-52
2023/04/20 04:02:12;;;;;;;;;;;;;;;16.37;48.57;100207.66;5016334;28;1119;-53
2023/04/20 04:04:39;;;;;;;;;;;;;;;16.01;48.15;100213.38;5016344;28;1343;-52
2023/04/20 04:07:06;;;;;;;;;;;;;;;15.97;47.35;100212.28;5021336;28;1029;-55
2023/04/20 04:09:31;;;;;;;;;;;;;;;16.75;48.13;100207.88;5016235;28;1301;-53
2023/04/20 04:11:57;;;;;;;;;;;;;;;16.23;48.43;100212.97;5049208;28;1227;-54
2023/04/20 04:14:23;;;;;;;;;;;;;;;15.97;47.78;100217.78;5015913;28;1345;-54
2023/04/20 04:16:49;;;;;;;;;;;;;;;15.85;47.19;100212.66;5017468;28;1910;-54
2023/04/20 04:19:14;;;;;;;;;;;;;;;15.78;46.66;100212.13;5026578;28;1876;-54
2023/04/20 04:21:40;;;;;;;;;;;;;;;16.20;48.27;100215.44;5017193;28;1131;-53
2023/04/20 04:24:06;;;;;;;;;;;;;;;15.90;48.22;100211.78;5015621;28;1037;-54
2023/04/20 04:26:39;;;;;;;;;;;;;;;16.50;47.97;100216.34;5015629;28;1242;-53
2023/04/20 04:29:05;;;;;;;;;;;;;;;16.11;48.68;100214.41;5016946;28;1151;-54
2023/04/20 04:31:32;;;;;;;;;;;;;;;15.96;48.14;100218.88;5025155;28;1071;-54
2023/04/20 04:34:06;;;;;;;;;;;;;;;17.04;48.00;100218.09;5015481;28;1482;-52
2023/04/20 04:36:37;;;;;;;;;;;;;;;16.29;48.42;100223.91;5015053;28;1902;-54
2023/04/20 04:39:05;;;;;;;;;;;;;;;15.96;47.99;100227.09;5028734;28;1153;-53
2023/04/20 04:41:31;;;;;;;;;;;;;;;15.84;47.54;100215.69;5015695;28;1103;-54
2023/04/20 04:44:08;;;;;;;;;;;;;;;16.56;48.00;100228.91;5018998;28;1977;-54
2023/04/20 04:46:35;;;;;;;;;;;;;;;16.19;48.59;100233.84;5027249;28;1134;-53
2023/04/20 04:49:01;;;;;;;;;;;;;;;16.37;48.56;100234.28;4999372;28;1215;-53
2023/04/20 04:51:27;;;;;;;;;;;;;;;17.25;48.02;100231.56;5015651;28;1167;-54
2023/04/20 04:53:52;;;;;;;;;;;;;;;16.31;49.06;100230.72;5016610;28;1484;-53
2023/04/20 04:56:19;;;;;;;;;;;;;;;17.02;48.88;100228.53;5026338;28;1910;-54
2023/04/20 04:58:45;;;;;;;;;;;;;;;16.75;48.89;100235.34;5017011;28;1229;-50
2023/04/20 05:01:10;;;;;;;;;;;;;;;16.26;48.44;100230.78;5016739;28;1212;-47
2023/04/20 05:03:36;;;;;;;;;;;;;;;16.12;47.76;100233.34;5016815;28;1024;-46
2023/04/20 05:06:01;;;;;;;;;;;;;;;17.63;47.50;100231.72;5016727;28;1131;-44
2023/04/20 05:08:27;;;;;;;;;;;;;;;17.14;48.28;100230.06;5019199;28;913;-47
2023/04/20 05:10:53;;;;;;;;;;;;;;;16.65;49.45;100237.34;5016696;28;1047;-44
2023/04/20 05:13:18;;;;;;;;;;;;;;;16.38;50.07;100242.22;5016667;28;1119;-43
2023/04/20 05:15:44;;;;;;;;;;;;;;;16.18;50.44;100240.41;5016670;28;1057;-46
2023/04/20 05:18:09;;;;;;;;;;;;;;;16.07;51.05;100245.16;5016441;28;1910;-49
2023/04/20 05:20:35;;;;;;;;;;;;;;;15.96;51.06;100240.00;5026144;28;853;-43
2023/04/20 05:23:01;;;;;;;;;;;;;;;15.85;51.43;100248.28;5015742;28;1023;-46
2023/04/20 05:25:26;;;;;;;;;;;;;;;15.77;51.48;100237.03;5016576;28;1122;-46
2023/04/20 05:27:52;;;;;;;;;;;;;;;15.66;51.60;100244.50;5015914;28;1064;-48
2023/04/20 05:30:17;;;;;;;;;;;;;;;15.56;52.03;100242.63;5016170;28;1150;-47
2023/04/20 05:32:43;;;;;;;;;;;;;;;15.49;52.30;100250.31;5020500;28;899;-45
2023/04/20 05:35:09;;;;;;;;;;;;;;;15.40;52.25;100244.56;5016239;28;1059;-50
2023/04/20 05:37:34;;;;;;;;;;;;;;;15.31;52.64;100233.38;5016302;28;1969;-45
2023/04/20 05:40:00;;;;;;;;;;;;;;;16.36;50.43;100247.16;5016638;28;1096;-49
2023/04/20 05:42:25;;;;;;;;;;;;;;;17.22;48.19;100248.66;5016281;28;1134;-44
2023/04/20 05:44:51;;;;;;;;;;;;;;;16.22;50.45;100251.66;5027814;28;972;-46
2023/04/20 05:47:16;;;;;;;;;;;;;;;15.89;51.58;100256.75;5015485;28;1083;-47
2023/04/20 05:49:44;;;;;;;;;;;;;;;15.74;52.02;100254.88;5019856;28;1106;-50
2023/04/20 05:52:09;;;;;;;;;;;;;;;15.73;52.33;100256.78;5019512;28;1067;-48
2023/04/20 05:54:35;;;;;;;;;;;;;;;16.60;50.29;100254.69;5020262;28;1102;-50
2023/04/20 05:57:00;;;;;;;;;;;;;;;16.80;49.76;100252.88;5024870;28;1973;-44
2023/04/20 05:59:26;;;;;;;;;;;;;;;16.11;51.53;100258.31;5019544;28;1170;-45
2023/04/20 06:01:52;;;;;;;;;;;;;;;15.94;52.00;100264.16;5018462;28;1036;-49
2023/04/20 06:04:17;;;;;;;;;;;;;;;15.67;52.49;100248.88;5019727;28;1285;-46
2023/04/20 06:06:43;;;;;;;;;;;;;;;15.56;52.56;100257.13;5019758;28;1122;-46
2023/04/20 06:09:09;;;;;;;;;;;;;;;15.47;53.06;100258.00;5007053;28;1071;-48
2023/04/20 06:11:34;;;;;;;;;;;;;;;17.00;49.43;100255.47;5019730;28;995;-45
2023/04/20 06:14:00;;;;;;;;;;;;;;;16.97;49.10;100258.81;5019659;28;1103;-49
2023/04/20 06:16:25;;;;;;;;;;;;;;;16.22;51.15;100257.13;5019418;28;1918;-49
2023/04/20 06:18:51;;;;;;;;;;;;;;;15.91;51.89;100249.09;5019788;28;1039;-47
2023/04/20 06:21:17;;;;;;;;;;;;;;;15.73;52.57;100248.56;5025220;28;1047;-51
2023/04/20 06:23:43;;;;;;;;;;;;;;;15.59;52.63;100247.53;5019329;28;1035;-54
2023/04/20 06:26:09;;;;;;;;;;;;;;;15.70;52.81;100254.63;5019310;28;1147;-48
2023/04/20 06:28:35;;;;;;;;;;;;;;;17.26;48.99;100242.31;5020618;28;1087;-51
2023/04/20 06:31:01;;;;;;;;;;;;;;;16.61;50.36;100239.84;5018636;28;1186;-48
2023/04/20 06:33:26;;;;;;;;;;;;;;;16.10;51.56;100248.44;5018906;28;1131;-50
2023/04/20 06:35:53;;;;;;;;;;;;;;;15.85;52.38;100250.19;5019065;28;1060;-50
2023/04/20 06:38:19;;;;;;;;;;;;;;;15.67;52.76;100246.97;5019066;28;1993;-49
2023/04/20 06:40:45;;;;;;;;;;;;;;;16.68;50.68;100254.06;5019048;28;1134;-50
2023/04/20 06:43:10;;;;;;;;;;;;;;;17.31;48.56;100252.41;5020118;28;1040;-51
2023/04/20 06:45:36;;;;;;;;;;;;;;;16.38;51.18;100242.22;5026034;28;1154;-50
2023/04/20 06:48:01;;;;;;;;;;;;;;;16.07;51.99;100241.59;5018459;28;1150;-51
2023/04/20 06:50:28;;;;;;;;;;;;;;;15.84;52.42;100237.59;5018851;28;1234;-50
2023/04/20 06:52:54;;;;;;;;;;;;;;;15.70;52.61;100246.41;5018611;28;1040;-51
2023/04/20 06:55:20;;;;;;;;;;;;;;;15.55;53.04;100249.19;5020892;28;1198;-47
2023/04/20 06:57:45;;;;;;;;;;;;;;;16.25;51.63;100253.81;5018387;28;1910;-48
2023/04/20 07:00:11;;;;;;;;;;;;;;;17.43;48.72;100252.84;5018271;28;1070;-51
2023/04/20 07:02:55;;;;;;;;;;;;;;;16.41;50.95;100257.28;5018345;28;1123;-48
2023/04/20 07:05:21;;;;;;;;;;;;;;;15.99;52.21;100259.47;5020016;28;1064;-50
2023/04/20 07:07:46;;;;;;;;;;;;;;;15.78;52.91;100257.88;5034651;28;1102;-51
2023/04/20 07:10:12;;;;;;;;;;;;;;;15.64;53.08;100258.50;5023534;28;1225;-51
2023/04/20 07:12:38;;;;;;;;;;;;;;;15.73;53.01;100262.28;5018247;28;1514;-52
2023/04/20 07:15:04;;;;;;;;;;;;;;;17.22;49.37;100256.91;5018322;28;1080;-50
2023/04/20 07:17:30;;;;;;;;;;;;;;;16.86;50.16;100254.47;5018656;28;1906;-51
2023/04/20 07:19:56;;;;;;;;;;;;;;;16.21;51.68;100264.53;5022069;28;1202;-46
2023/04/20 07:22:22;;;;;;;;;;;;;;;15.97;52.25;100253.44;5017992;28;1075;-51
2023/04/20 07:24:48;;;;;;;;;;;;;;;15.81;52.97;100265.56;5017669;28;1110;-51
2023/04/20 07:27:13;;;;;;;;;;;;;;;15.67;53.14;100263.41;5017866;28;1007;-49
2023/04/20 07:29:39;;;;;;;;;;;;;;;16.04;52.58;100259.41;5017589;28;1135;-50
2023/04/20 07:32:05;;;;;;;;;;;;;;;17.47;49.03;100266.00;5023372;28;1470;-50
2023/04/20 07:34:30;;;;;;;;;;;;;;;16.62;50.91;100263.47;5022318;28;1221;-49
2023/04/20 07:36:56;;;;;;;;;;;;;;;16.16;52.26;100269.22;5018014;28;1930;-51
2023/04/20 07:39:22;;;;;;;;;;;;;;;15.84;53.03;100276.00;5017958;28;1068;-51
2023/04/20 07:41:47;;;;;;;;;;;;;;;15.70;53.11;100271.06;5017685;28;1175;-47
2023/04/20 07:44:13;;;;;;;;;;;;;;;15.59;53.47;100266.72;5023025;28;1153;-48
2023/04/20 07:46:39;;;;;;;;;;;;;;;17.01;50.48;100272.75;5017401;28;1221;-52
2023/04/20 07:49:04;;;;;;;;;;;;;;;16.86;50.50;100270.97;5017037;28;1036;-51
2023/04/20 07:51:32;;;;;;;;;;;;;;;16.19;52.06;100271.44;5017956;28;1114;-49
2023/04/20 07:53:58;;;;;;;;;;;;;;;15.94;52.88;100269.63;5017284;28;1056;-49
2023/04/20 07:56:23;;;;;;;;;;;;;;;15.77;53.09;100261.72;5024301;28;1901;-49
2023/04/20 07:58:49;;;;;;;;;;;;;;;15.64;53.53;100271.34;5022430;28;1083;-50
2023/04/20 08:01:14;;;;;;;;;;;;;;;15.53;53.65;100278.81;5017513;28;1186;-51
2023/04/20 08:03:40;;;;;;;;;;;;;;;16.94;50.46;100278.59;5017406;28;1528;-49
2023/04/20 08:06:06;;;;;;;;;;;;;;;17.13;49.77;100267.72;5017545;28;1072;-50
2023/04/20 08:08:31;;;;;;;;;;;;;;;16.28;51.93;100277.13;5017241;28;1092;-50
2023/04/20 08:11:00;;;;;;;;;;;;;;;16.02;52.76;100269.88;5016397;28;1082;-49
2023/04/20 08:13:27;;;;;;;;;;;;;;;15.80;53.24;100274.91;5017215;28;1201;-47
2023/04/20 08:15:52;;;;;;;;;;;;;;;15.67;53.50;100270.78;5016993;28;1118;-47
2023/04/20 08:18:18;;;;;;;;;;;;;;;15.58;53.64;100267.81;5017259;28;1993;-47
2023/04/20 08:20:44;;;;;;;;;;;;;;;16.56;51.78;100264.59;5025136;28;1110;-43
2023/04/20 08:23:10;;;;;;;;;;;;;;;16.75;50.88;100261.97;5021089;28;1198;-44
2023/04/20 08:25:39;;;;;;;;;;;;;;;16.13;52.46;100256.09;5017130;28;1074;-47
2023/04/20 08:28:05;;;;;;;;;;;;;;;15.81;53.24;100260.06;5017001;28;1163;-45
2023/04/20 08:30:31;;;;;;;;;;;;;;;15.69;53.49;100263.13;5016741;28;1127;-49
2023/04/20 08:32:57;;;;;;;;;;;;;;;15.57;53.82;100260.69;5025461;28;1063;-48
2023/04/20 08:35:22;;;;;;;;;;;;;;;15.97;53.05;100271.81;5027012;28;1362;-49
2023/04/20 08:37:48;;;;;;;;;;;;;;;17.38;49.44;100272.13;5016807;28;1913;-46
2023/04/20 08:40:14;;;;;;;;;;;;;;;16.71;50.90;100267.22;5016715;28;1126;-45
2023/04/20 08:42:40;;;;;;;;;;;;;;;16.12;52.65;100263.50;5016822;28;1067;-43
2023/04/20 08:45:06;;;;;;;;;;;;;;;15.89;52.99;100257.59;5016789;28;1144;-46
2023/04/20 08:47:31;;;;;;;;;;;;;;;15.73;53.40;100259.53;5016602;28;1123;-45
2023/04/20 08:49:57;;;;;;;;;;;;;;;15.68;53.62;100253.25;5015786;28;1112;-48
2023/04/20 08:52:22;;;;;;;;;;;;;;;15.55;53.83;100260.16;5016735;28;1074;-47
2023/04/20 08:54:48;;;;;;;;;;;;;;;16.52;52.10;100258.03;5016941;28;1130;-46
2023/04/20 08:57:14;;;;;;;;;;;;;;;17.37;49.52;100264.97;5023414;28;1971;-45
2023/04/20 08:59:39;;;;;;;;;;;;;;;16.35;52.08;100259.22;5015087;28;1218;-48
2023/04/20 09:02:11;;;;;;;;;;;;;;;15.98;53.21;100254.28;5016793;28;1075;-46
2023/04/20 09:04:37;;;;;;;;;;;;;;;15.79;53.30;100254.88;5017069;28;1154;-51
2023/04/20 09:07:03;;;;;;;;;;;;;;;15.64;53.84;100257.66;5016537;28;1102;-44
2023/04/20 09:09:29;;;;;;;;;;;;;;;16.92;50.85;100256.91;5017877;28;892;-52
2023/04/20 09:12:03;;;;;;;;;;;;;;;16.80;50.85;100259.16;5019626;28;1078;-50
2023/04/20 09:14:29;;;;;;;;;;;;;;;16.16;52.87;100261.00;5025481;28;1103;-50
2023/04/20 09:17:03;;;;;;;;;;;;;;;15.93;53.22;100257.84;5021129;28;1914;-47
2023/04/20 09:19:29;;;;;;;;;;;;;;;15.76;53.51;100258.16;5023830;28;1051;-49
2023/04/20 09:21:55;;;;;;;;;;;;;;;15.61;54.00;100261.78;5025244;28;1118;-46
2023/04/20 09:24:22;;;;;;;;;;;;;;;15.92;53.53;100258.94;5020557;28;1087;-47
2023/04/20 09:26:47;;;;;;;;;;;;;;;17.37;49.97;100254.00;5019994;28;1080;-51
2023/04/20 09:29:19;;;;;;;;;;;;;;;16.45;52.06;100260.28;5020169;28;1084;-49
2023/04/20 09:31:45;;;;;;;;;;;;;;;16.07;53.18;100253.41;5020018;28;1029;-46
2023/04/20 09:34:11;;;;;;;;;;;;;;;15.84;53.40;100259.53;5022554;28;892;-47
2023/04/20 09:36:39;;;;;;;;;;;;;;;16.57;52.38;100261.56;5019949;28;1969;-45
2023/04/20 09:39:08;;;;;;;;;;;;;;;17.17;50.51;100267.97;5020269;28;1098;-51
2023/04/20 09:41:33;;;;;;;;;;;;;;;16.31;52.74;100268.31;5020196;28;1138;-45
2023/04/20 09:43:59;;;;;;;;;;;;;;;16.08;53.03;100271.47;5020424;28;1099;-46
2023/04/20 09:46:26;;;;;;;;;;;;;;;15.82;53.66;100284.50;5028348;28;1184;-46
2023/04/20 09:48:52;;;;;;;;;;;;;;;15.72;53.75;100276.25;5018579;28;1063;-49
2023/04/20 09:51:17;;;;;;;;;;;;;;;15.61;54.00;100277.41;5018579;28;1281;-49
2023/04/20 09:53:44;;;;;;;;;;;;;;;15.64;54.03;100272.19;5018492;28;1048;-47
2023/04/20 09:56:10;;;;;;;;;;;;;;;17.18;50.85;100269.56;5018360;28;1035;-42
2023/04/20 09:58:36;;;;;;;;;;;;;;;16.63;52.07;100265.06;5023518;28;1967;-47
2023/04/20 10:01:01;;;;;;;;;;;;;;;16.14;53.33;100265.97;5018350;28;1163;-51
2023/04/20 10:03:27;;;;;;;;;;;;;;;15.88;54.06;100266.09;5019532;28;1038;-53
2023/04/20 10:05:54;;;;;;;;;;;;;;;15.74;54.07;100265.84;5019641;28;1205;-51
2023/04/20 10:08:20;;;;;;;;;;;;;;;15.64;54.12;100263.97;5020136;28;1122;-51
2023/04/20 10:10:46;;;;;;;;;;;;;;;15.52;54.34;100274.41;5030852;28;1178;-54
2023/04/20 10:13:14;;;;;;;;;;;;;;;16.45;52.80;100266.56;5019983;28;1159;-51
2023/04/20 10:15:40;;;;;;;;;;;;;;;17.19;50.84;100261.03;5006958;28;1059;-51
2023/04/20 10:18:16;;;;;;;;;;;;;;;16.29;52.94;100265.88;5019091;28;1906;-53
2023/04/20 10:20:42;;;;;;;;;;;;;;;15.94;53.73;100264.97;5019875;28;1212;-52
2023/04/20 10:23:13;;;;;;;;;;;;;;;15.78;54.13;100266.09;5024311;28;1106;-51
2023/04/20 10:25:38;;;;;;;;;;;;;;;15.61;54.43;100261.78;5029907;28;1118;-52
2023/04/20 10:28:07;;;;;;;;;;;;;;;16.51;52.75;100273.69;5019054;28;1047;-55
2023/04/20 10:30:32;;;;;;;;;;;;;;;17.04;51.22;100270.28;5019020;28;1131;-52
2023/04/20 10:33:04;;;;;;;;;;;;;;;16.31;52.84;100274.63;5020316;28;1008;-53
2023/04/20 10:35:39;;;;;;;;;;;;;;;15.98;53.66;100270.72;5028014;28;1054;-53
2023/04/20 10:38:05;;;;;;;;;;;;;;;15.75;54.21;100278.44;5018991;28;1975;-53
2023/04/20 10:40:30;;;;;;;;;;;;;;;17.04;51.46;100278.50;5017829;28;1139;-53
2023/04/20 10:42:56;;;;;;;;;;;;;;;16.39;52.95;100275.97;5019037;28;1044;-53
2023/04/20 10:45:32;;;;;;;;;;;;;;;16.05;53.57;100271.22;5022844;28;1186;-53
2023/04/20 10:47:58;;;;;;;;;;;;;;;16.51;53.18;100278.34;5018876;28;1087;-53
2023/04/20 10:50:23;;;;;;;;;;;;;;;17.16;50.91;100260.81;5017291;28;1294;-55
2023/04/20 10:52:49;;;;;;;;;;;;;;;16.33;53.18;100266.94;5017475;28;1521;-54
2023/04/20 10:55:18;;;;;;;;;;;;;;;16.05;53.72;100277.53;5018489;28;1146;-54
2023/04/20 10:57:44;;;;;;;;;;;;;;;15.87;53.98;100265.25;5012289;28;1963;-49
2023/04/20 11:00:15;;;;;;;;;;;;;;;15.72;54.32;100263.41;5024670;28;987;-52
2023/04/20 11:02:48;;;;;;;;;;;;;;;15.63;54.18;100264.25;5018719;28;1008;-52
2023/04/20 11:05:14;;;;;;;;;;;;;;;15.54;54.50;100269.47;5018256;28;1278;-55
2023/04/20 11:07:49;;;;;;;;;;;;;;;16.85;52.21;100267.38;5019013;28;1052;-56
2023/04/20 11:10:15;;;;;;;;;;;;;;;17.20;51.17;100261.88;5024629;28;1039;-55
2023/04/20 11:12:40;;;;;;;;;;;;;;;16.29;53.56;100265.88;5017351;28;1143;-54
2023/04/20 11:15:08;;;;;;;;;;;;;;;16.01;54.02;100265.47;5018402;28;1123;-54
2023/04/20 11:17:37;;;;;;;;;;;;;;;15.87;54.29;100265.25;5018630;28;1951;-53
2023/04/20 11:20:07;;;;;;;;;;;;;;;15.73;54.39;100266.94;5018003;28;1019;-52
2023/04/20 11:22:33;;;;;;;;;;;;;;;15.60;54.35;100260.16;5018148;28;908;-51
2023/04/20 11:25:04;;;;;;;;;;;;;;;15.71;54.46;100266.38;5018090;28;1079;-53
2023/04/20 11:27:30;;;;;;;;;;;;;;;17.22;51.52;100259.66;5018192;28;1174;-53
2023/04/20 11:29:57;;;;;;;;;;;;;;;16.42;53.37;100269.91;5017924;28;1083;-55
2023/04/20 11:32:22;;;;;;;;;;;;;;;16.00;54.25;100274.00;5018399;28;1107;-55
2023/04/20 11:34:48;;;;;;;;;;;;;;;15.83;54.44;100257.91;5026149;28;1307;-55
2023/04/20 11:37:13;;;;;;;;;;;;;;;15.67;54.80;100257.09;5016659;28;1969;-54
2023/04/20 11:39:40;;;;;;;;;;;;;;;15.58;54.70;100251.38;5031249;28;1159;-54
2023/04/20 11:42:05;;;;;;;;;;;;;;;16.91;52.36;100257.19;5018583;28;1084;-55
2023/04/20 11:44:31;;;;;;;;;;;;;;;16.88;52.24;100257.75;5017627;28;1135;-54
2023/04/20 11:46:57;;;;;;;;;;;;;;;16.18;54.04;100254.13;5020233;28;1081;-54
2023/04/20 11:49:23;;;;;;;;;;;;;;;15.90;54.57;100256.47;5021437;28;1035;-53
2023/04/20 11:51:49;;;;;;;;;;;;;;;15.76;54.68;100249.94;5027182;28;1090;-54
2023/04/20 11:54:15;;;;;;;;;;;;;;;15.66;54.61;100252.72;5017649;28;1071;-54
2023/04/20 11:56:41;;;;;;;;;;;;;;;15.55;54.58;100249.19;5017730;28;1914;-51
2023/04/20 11:59:07;;;;;;;;;;;;;;;16.74;52.94;100255.66;5027066;28;1044;-56
2023/04/20 12:01:32;;;;;;;;;;;;;;;17.08;51.76;100254.00;5017386;28;1123;-56
2023/04/20 12:04:00;;;;;;;;;;;;;;;16.24;54.00;100255.75;5017246;28;1111;-55
2023/04/20 12:06:30;;;;;;;;;;;;;;;15.96;54.49;100254.53;5017443;28;1075;-55
2023/04/20 12:08:56;;;;;;;;;;;;;;;15.80;54.49;100258.47;5017600;28;1078;-55
2023/04/20 12:11:21;;;;;;;;;;;;;;;15.67;54.65;100257.94;5021117;28;904;-55
2023/04/20 12:13:47;;;;;;;;;;;;;;;15.59;54.83;100265.91;5017564;28;1068;-55
2023/04/20 12:16:13;;;;;;;;;;;;;;;17.05;52.31;100254.59;5017454;28;1032;-51
2023/04/20 12:18:38;;;;;;;;;;;;;;;16.53;53.38;100265.16;5016950;28;1909;-53
2023/04/20 12:21:04;;;;;;;;;;;;;;;16.08;54.19;100265.97;5017685;28;1070;-54
2023/04/20 12:23:30;;;;;;;;;;;;;;;15.88;54.67;100261.44;5026957;28;1171;-54
2023/04/20 12:25:55;;;;;;;;;;;;;;;15.69;54.99;100257.66;5017147;28;1118;-54
2023/04/20 12:28:21;;;;;;;;;;;;;;;15.60;55.07;100254.66;5016958;28;1139;-54
2023/04/20 12:30:46;;;;;;;;;;;;;;;15.53;54.84;100254.16;5017437;28;1064;-54
2023/04/20 12:33:12;;;;;;;;;;;;;;;16.89;52.83;100256.69;5021605;28;1084;-54
2023/04/20 12:35:38;;;;;;;;;;;;;;;16.90;52.53;100256.38;5020683;28;1166;-55
2023/04/20 12:38:03;;;;;;;;;;;;;;;16.17;54.26;100255.25;5016878;28;1988;-54
2023/04/20 12:40:29;;;;;;;;;;;;;;;15.90;54.93;100259.22;5016768;28;1167;-53
2023/04/20 12:42:55;;;;;;;;;;;;;;;15.77;54.88;100248.00;5016912;28;1178;-54
2023/04/20 12:45:20;;;;;;;;;;;;;;;15.68;54.79;100248.63;5016843;28;1232;-54